Accueil
METAR-TAF:

METAR-TAF

Aéroports :

Locarno, Suisse

latitude: 46-09-55N, longitude: 8-52-40E, altitude: 198 m

Observation

Le bulletin a été fait il y a 18 minutes, à 22:20 UTC
Vent 2 kt de direction variable
Température 20°C
Humidité 100%
Pression 1022 hPa
Visibilité 10 km ou plus
Nuages fragmentés à une hauteur de 11000 ft

METAR: LSZL 222220Z AUTO VRB02KT 9999NDV BKN110 20/20 Q1022 RMK

Heure: 00:38 (22:38 UTC)

Prévision

Le bulletin a été fait il y a 5 heures et 13 minutes, à 17:25 UTC
Prévision valable du 22 à 18 UTC au 23 à 03 UTC
Vent 3 kt de direction variable
Visibilité 10 km ou plus
Quelques nuages à une hauteur de 6000 ft
Nuages fragmentés à une hauteur de 11000 ft
Probabilité 30% :
Temporairement
du 22 à 18 UTC au 22 à 21 UTC
Quelques nuages à une hauteur de 5000 ft, Cumulus congestus.
averses de pluie

TAF: LSZL 221725Z 2218/2303 VRB03KT 9999 FEW060 BKN110 PROB30 TEMPO 2218/2221 SHRA FEW050TCU

Observations et prévisions météorologiques de plus de 4000 aéroports (messages METAR et TAF).

Les stations disponibles sont représentées par des disques jaunes et rouges sur la carte.

Passer la souris dessus pour voir le nom de la station.

Cliquer dessus pour voir les observations et prévisions météorologiques.

Pour changer de carte: cliquez sur les boutons verts avec une croix noire pour zoomer, sur le bouton vert avec un tiret pour effectuer un zoom arrière, ou sur les flèches vertes pour les cartes adjacentes.


METAR-TAF: